EGV21Z EGLL-EGCC
Flight info
| Callsign | EGV21Z |
|---|---|
| Flight time | 0h 34m |
| Altitude | 18000 |
| Route | UMLAT T418 WELIN T420 ELVOS |
| Aircraft | A343/H-SDE2E3FGHIJ4J5M1RWXY/LB1D1 |
Departure
| Time | 2026-05-04 13:20 |
|---|---|
| Airport | London Heathrow Airport (EGLL) |
Arrival
| Time | 2026-05-04 13:54 |
|---|---|
| Airport | Manchester Airport (EGCC) |
| Time | Latitude | Longitude | Altitude | Speed | Heading |
|---|---|---|---|---|---|
| 2026-05-04 12:47 | 51.47223 | -0.47509 | 94 ft | 0 kts | 270° |
| 2026-05-04 13:05 | 51.47223 | -0.47490 | 94 ft | 4 kts | 270° |
| 2026-05-04 13:05 | 51.47224 | -0.47447 | 92 ft | 4 kts | 270° |
| 2026-05-04 13:06 | 51.47224 | -0.47412 | 92 ft | 4 kts | 257° |
| 2026-05-04 13:06 | 51.47236 | -0.47377 | 92 ft | 4 kts | 215° |
| 2026-05-04 13:06 | 51.47260 | -0.47360 | 90 ft | 4 kts | 190° |
| 2026-05-04 13:06 | 51.47285 | -0.47356 | 89 ft | 4 kts | 180° |
| 2026-05-04 13:07 | 51.47312 | -0.47356 | 90 ft | 4 kts | 180° |
| 2026-05-04 13:07 | 51.47339 | -0.47357 | 90 ft | 4 kts | 180° |
| 2026-05-04 13:07 | 51.47348 | -0.47357 | 90 ft | 0 kts | 180° |
| 2026-05-04 13:12 | 51.47345 | -0.47357 | 90 ft | 3 kts | 180° |
| 2026-05-04 13:12 | 51.47287 | -0.47355 | 90 ft | 14 kts | 179° |
| 2026-05-04 13:12 | 51.47176 | -0.47352 | 90 ft | 17 kts | 180° |
| 2026-05-04 13:13 | 51.47053 | -0.47351 | 90 ft | 18 kts | 179° |
| 2026-05-04 13:13 | 51.46921 | -0.47350 | 90 ft | 19 kts | 180° |
| 2026-05-04 13:13 | 51.46785 | -0.47345 | 91 ft | 18 kts | 168° |
| 2026-05-04 13:13 | 51.46745 | -0.47241 | 91 ft | 9 kts | 90° |
| 2026-05-04 13:14 | 51.46746 | -0.47111 | 94 ft | 14 kts | 89° |
| 2026-05-04 13:14 | 51.46747 | -0.46937 | 94 ft | 16 kts | 90° |
| 2026-05-04 13:14 | 51.46748 | -0.46747 | 94 ft | 18 kts | 89° |
| 2026-05-04 13:14 | 51.46748 | -0.46548 | 93 ft | 18 kts | 90° |
| 2026-05-04 13:15 | 51.46747 | -0.46341 | 94 ft | 19 kts | 90° |
| 2026-05-04 13:15 | 51.46748 | -0.46123 | 94 ft | 20 kts | 90° |
| 2026-05-04 13:15 | 51.46748 | -0.45898 | 93 ft | 21 kts | 90° |
| 2026-05-04 13:15 | 51.46749 | -0.45662 | 90 ft | 21 kts | 90° |
| 2026-05-04 13:16 | 51.46749 | -0.45421 | 90 ft | 22 kts | 90° |
| 2026-05-04 13:16 | 51.46751 | -0.45172 | 90 ft | 23 kts | 89° |
| 2026-05-04 13:16 | 51.46752 | -0.44917 | 90 ft | 23 kts | 90° |
| 2026-05-04 13:16 | 51.46753 | -0.44654 | 90 ft | 24 kts | 89° |
| 2026-05-04 13:17 | 51.46754 | -0.44386 | 93 ft | 24 kts | 89° |
| 2026-05-04 13:17 | 51.46755 | -0.44117 | 94 ft | 24 kts | 86° |
| 2026-05-04 13:17 | 51.46770 | -0.43872 | 95 ft | 22 kts | 90° |
| 2026-05-04 13:17 | 51.46761 | -0.43635 | 95 ft | 18 kts | 120° |
| 2026-05-04 13:18 | 51.46702 | -0.43604 | 92 ft | 11 kts | 177° |
| 2026-05-04 13:18 | 51.46616 | -0.43600 | 90 ft | 1 kts | 179° |
| 2026-05-04 13:18 | 51.46545 | -0.43598 | 91 ft | 6 kts | 179° |
| 2026-05-04 13:18 | 51.46511 | -0.43612 | 92 ft | 5 kts | 215° |
| 2026-05-04 13:19 | 51.46495 | -0.43668 | 93 ft | 7 kts | 258° |
| 2026-05-04 13:19 | 51.46493 | -0.43867 | 90 ft | 41 kts | 270° |
| 2026-05-04 13:19 | 51.46490 | -0.44683 | 94 ft | 104 kts | 269° |
| 2026-05-04 13:19 | 51.46486 | -0.46119 | 98 ft | 154 kts | 268° |
| 2026-05-04 13:20 | 51.46470 | -0.47880 | 596 ft | 160 kts | 272° |
| 2026-05-04 13:20 | 51.46463 | -0.49704 | 1246 ft | 166 kts | 270° |
| 2026-05-04 13:20 | 51.46694 | -0.51635 | 1636 ft | 189 kts | 294° |
| 2026-05-04 13:20 | 51.47300 | -0.53615 | 2188 ft | 209 kts | 299° |
| 2026-05-04 13:21 | 51.48038 | -0.55842 | 2760 ft | 236 kts | 299° |
| 2026-05-04 13:21 | 51.48824 | -0.58217 | 3652 ft | 246 kts | 298° |
| 2026-05-04 13:21 | 51.49631 | -0.60686 | 4655 ft | 253 kts | 297° |
| 2026-05-04 13:21 | 51.50493 | -0.63175 | 5439 ft | 266 kts | 303° |
| 2026-05-04 13:22 | 51.51801 | -0.65310 | 5896 ft | 272 kts | 322° |
| 2026-05-04 13:22 | 51.53446 | -0.66800 | 6017 ft | 274 kts | 339° |
| 2026-05-04 13:22 | 51.55302 | -0.67546 | 6023 ft | 275 kts | 348° |
| 2026-05-04 13:22 | 51.57181 | -0.68120 | 6021 ft | 275 kts | 348° |
| 2026-05-04 13:23 | 51.59076 | -0.68552 | 6019 ft | 276 kts | 354° |
| 2026-05-04 13:23 | 51.60998 | -0.68767 | 6019 ft | 277 kts | 354° |
| 2026-05-04 13:23 | 51.62922 | -0.68964 | 6019 ft | 278 kts | 355° |
| 2026-05-04 13:23 | 51.64851 | -0.69168 | 6017 ft | 277 kts | 355° |
| 2026-05-04 13:24 | 51.66766 | -0.69374 | 6018 ft | 277 kts | 355° |
| 2026-05-04 13:24 | 51.68661 | -0.69574 | 6107 ft | 275 kts | 354° |
| 2026-05-04 13:24 | 51.70575 | -0.69781 | 6514 ft | 277 kts | 354° |
| 2026-05-04 13:25 | 51.74463 | -0.70222 | 8351 ft | 282 kts | 354° |
| 2026-05-04 13:25 | 51.76431 | -0.70448 | 9356 ft | 286 kts | 354° |
| 2026-05-04 13:25 | 51.78430 | -0.70676 | 10290 ft | 291 kts | 354° |
| 2026-05-04 13:25 | 51.80507 | -0.70914 | 10791 ft | 309 kts | 354° |
| 2026-05-04 13:26 | 51.82719 | -0.71169 | 11213 ft | 328 kts | 354° |
| 2026-05-04 13:26 | 51.85055 | -0.71436 | 11629 ft | 346 kts | 354° |
| 2026-05-04 13:26 | 51.87515 | -0.71714 | 12145 ft | 359 kts | 354° |
| 2026-05-04 13:26 | 51.89994 | -0.71992 | 12764 ft | 368 kts | 354° |
| 2026-05-04 13:27 | 51.92587 | -0.72281 | 13484 ft | 375 kts | 354° |
| 2026-05-04 13:27 | 51.95210 | -0.72575 | 14182 ft | 381 kts | 354° |
| 2026-05-04 13:27 | 51.97876 | -0.72874 | 14844 ft | 387 kts | 354° |
| 2026-05-04 13:27 | 52.00583 | -0.73229 | 15528 ft | 392 kts | 351° |
| 2026-05-04 13:28 | 52.03253 | -0.74128 | 16246 ft | 395 kts | 344° |
| 2026-05-04 13:28 | 52.05923 | -0.75326 | 16956 ft | 399 kts | 342° |
| 2026-05-04 13:28 | 52.08567 | -0.76648 | 17622 ft | 405 kts | 341° |
| 2026-05-04 13:28 | 52.11301 | -0.78085 | 17981 ft | 411 kts | 341° |
| 2026-05-04 13:29 | 52.14006 | -0.79532 | 18050 ft | 419 kts | 340° |
| 2026-05-04 13:29 | 52.16782 | -0.81019 | 18047 ft | 422 kts | 341° |
| 2026-05-04 13:29 | 52.19574 | -0.82506 | 18047 ft | 422 kts | 341° |
| 2026-05-04 13:29 | 52.22366 | -0.83985 | 18046 ft | 422 kts | 341° |
| 2026-05-04 13:30 | 52.25070 | -0.85838 | 18050 ft | 420 kts | 332° |
| 2026-05-04 13:30 | 52.27643 | -0.88098 | 18048 ft | 420 kts | 329° |
| 2026-05-04 13:30 | 52.30160 | -0.90491 | 18049 ft | 419 kts | 328° |
| 2026-05-04 13:30 | 52.32646 | -0.92956 | 18052 ft | 417 kts | 327° |
| 2026-05-04 13:31 | 52.35117 | -0.95452 | 18053 ft | 417 kts | 327° |
| 2026-05-04 13:31 | 52.37576 | -0.97945 | 18048 ft | 417 kts | 327° |
| 2026-05-04 13:31 | 52.40007 | -1.00405 | 18054 ft | 417 kts | 327° |
| 2026-05-04 13:31 | 52.42479 | -1.02897 | 18052 ft | 417 kts | 327° |
| 2026-05-04 13:32 | 52.44955 | -1.05386 | 18042 ft | 417 kts | 327° |
| 2026-05-04 13:32 | 52.47424 | -1.07866 | 18042 ft | 417 kts | 327° |
| 2026-05-04 13:32 | 52.49901 | -1.10349 | 18038 ft | 417 kts | 328° |
| 2026-05-04 13:32 | 52.52378 | -1.12831 | 18034 ft | 417 kts | 327° |
| 2026-05-04 13:33 | 52.54848 | -1.15316 | 18031 ft | 416 kts | 327° |
| 2026-05-04 13:33 | 52.57318 | -1.17805 | 18028 ft | 416 kts | 327° |
| 2026-05-04 13:33 | 52.59413 | -1.19918 | 18026 ft | 416 kts | 327° |
| 2026-05-04 13:37 | 52.60359 | -1.20875 | 18024 ft | 415 kts | 327° |
| 2026-05-04 13:37 | 52.62857 | -1.23405 | 18021 ft | 415 kts | 327° |
| 2026-05-04 13:37 | 52.64471 | -1.25041 | 18021 ft | 415 kts | 327° |
| 2026-05-04 13:38 | 52.67743 | -1.28359 | 18022 ft | 416 kts | 327° |
| 2026-05-04 13:38 | 52.70208 | -1.30861 | 18021 ft | 416 kts | 327° |
| 2026-05-04 13:38 | 52.72663 | -1.33356 | 17789 ft | 411 kts | 327° |
| 2026-05-04 13:38 | 52.75067 | -1.35806 | 17591 ft | 400 kts | 327° |
| 2026-05-04 13:39 | 52.77411 | -1.38196 | 17222 ft | 392 kts | 327° |
| 2026-05-04 13:39 | 52.79726 | -1.40562 | 16674 ft | 391 kts | 327° |
| 2026-05-04 13:39 | 52.82030 | -1.42919 | 16093 ft | 389 kts | 327° |
| 2026-05-04 13:39 | 52.84327 | -1.45271 | 15548 ft | 386 kts | 327° |
| 2026-05-04 13:40 | 52.86602 | -1.47604 | 15005 ft | 383 kts | 327° |
| 2026-05-04 13:40 | 52.88858 | -1.49921 | 14458 ft | 381 kts | 327° |
| 2026-05-04 13:40 | 52.91101 | -1.52225 | 13925 ft | 378 kts | 327° |
| 2026-05-04 13:40 | 52.93298 | -1.54487 | 13316 ft | 376 kts | 327° |
| 2026-05-04 13:41 | 52.95514 | -1.56770 | 12778 ft | 372 kts | 327° |
| 2026-05-04 13:41 | 52.97702 | -1.59026 | 12243 ft | 369 kts | 327° |
| 2026-05-04 13:41 | 52.99854 | -1.61248 | 12019 ft | 358 kts | 327° |
| 2026-05-04 13:42 | 53.03929 | -1.65462 | 11757 ft | 333 kts | 327° |
| 2026-05-04 13:42 | 53.05736 | -1.67726 | 11630 ft | 320 kts | 314° |
| 2026-05-04 13:42 | 53.07209 | -1.70418 | 11499 ft | 309 kts | 309° |
| 2026-05-04 13:42 | 53.08580 | -1.73095 | 11377 ft | 300 kts | 309° |
| 2026-05-04 13:43 | 53.09918 | -1.75703 | 11222 ft | 292 kts | 309° |
| 2026-05-04 13:43 | 53.11204 | -1.78206 | 10980 ft | 289 kts | 309° |
| 2026-05-04 13:43 | 53.12518 | -1.80761 | 10682 ft | 289 kts | 309° |
| 2026-05-04 13:43 | 53.13822 | -1.83302 | 10380 ft | 288 kts | 309° |
| 2026-05-04 13:44 | 53.15118 | -1.85826 | 10102 ft | 286 kts | 309° |
| 2026-05-04 13:44 | 53.16410 | -1.88343 | 9810 ft | 285 kts | 309° |
| 2026-05-04 13:44 | 53.17693 | -1.90844 | 9482 ft | 283 kts | 309° |
| 2026-05-04 13:44 | 53.18955 | -1.93308 | 9329 ft | 276 kts | 309° |
| 2026-05-04 13:45 | 53.20185 | -1.95709 | 9197 ft | 269 kts | 309° |
| 2026-05-04 13:45 | 53.21386 | -1.98056 | 8995 ft | 264 kts | 309° |
| 2026-05-04 13:45 | 53.22571 | -2.00380 | 8749 ft | 261 kts | 309° |
| 2026-05-04 13:45 | 53.23534 | -2.02896 | 8496 ft | 258 kts | 290° |
| 2026-05-04 13:46 | 53.23803 | -2.05805 | 8210 ft | 258 kts | 269° |
| 2026-05-04 13:46 | 53.23701 | -2.08835 | 7906 ft | 258 kts | 266° |
| 2026-05-04 13:46 | 53.23577 | -2.11780 | 7646 ft | 257 kts | 266° |
| 2026-05-04 13:46 | 53.23460 | -2.14729 | 7401 ft | 255 kts | 266° |
| 2026-05-04 13:47 | 53.23347 | -2.17684 | 7135 ft | 254 kts | 266° |
| 2026-05-04 13:47 | 53.23238 | -2.20616 | 6886 ft | 252 kts | 266° |
| 2026-05-04 13:47 | 53.23130 | -2.23537 | 6610 ft | 251 kts | 266° |
| 2026-05-04 13:47 | 53.23023 | -2.26416 | 6181 ft | 247 kts | 266° |
| 2026-05-04 13:48 | 53.22916 | -2.29270 | 5527 ft | 245 kts | 266° |
| 2026-05-04 13:48 | 53.22810 | -2.32075 | 4865 ft | 245 kts | 266° |
| 2026-05-04 13:48 | 53.22704 | -2.34900 | 4188 ft | 243 kts | 266° |
| 2026-05-04 13:48 | 53.22599 | -2.37681 | 3646 ft | 236 kts | 266° |
| 2026-05-04 13:49 | 53.22496 | -2.40382 | 3166 ft | 233 kts | 266° |
| 2026-05-04 13:49 | 53.22392 | -2.43088 | 2993 ft | 228 kts | 266° |
| 2026-05-04 13:49 | 53.22294 | -2.45638 | 2976 ft | 216 kts | 266° |
| 2026-05-04 13:49 | 53.22221 | -2.48028 | 2952 ft | 194 kts | 271° |
| 2026-05-04 13:50 | 53.22616 | -2.49980 | 2966 ft | 167 kts | 312° |
| 2026-05-04 13:50 | 53.23585 | -2.50588 | 2967 ft | 146 kts | 11° |
| 2026-05-04 13:50 | 53.24366 | -2.49708 | 2989 ft | 134 kts | 51° |
| 2026-05-04 13:50 | 53.24889 | -2.48401 | 2985 ft | 141 kts | 58° |
| 2026-05-04 13:51 | 53.25442 | -2.47007 | 2773 ft | 145 kts | 54° |
| 2026-05-04 13:51 | 53.26047 | -2.45674 | 2507 ft | 143 kts | 51° |
| 2026-05-04 13:51 | 53.26669 | -2.44419 | 2295 ft | 137 kts | 50° |
| 2026-05-04 13:51 | 53.27270 | -2.43193 | 2126 ft | 137 kts | 51° |
| 2026-05-04 13:52 | 53.28473 | -2.40724 | 1751 ft | 137 kts | 51° |
| 2026-05-04 13:52 | 53.29076 | -2.39490 | 1530 ft | 137 kts | 51° |
| 2026-05-04 13:52 | 53.29676 | -2.38259 | 1356 ft | 136 kts | 51° |
| 2026-05-04 13:53 | 53.30275 | -2.37031 | 1153 ft | 136 kts | 51° |
| 2026-05-04 13:53 | 53.30867 | -2.35819 | 970 ft | 136 kts | 51° |
| 2026-05-04 13:53 | 53.31467 | -2.34598 | 765 ft | 136 kts | 50° |
| 2026-05-04 13:54 | 53.32663 | -2.32172 | 410 ft | 136 kts | 51° |
| 2026-05-04 13:54 | 53.33256 | -2.30958 | 263 ft | 135 kts | 51° |
| 2026-05-04 13:54 | 53.34110 | -2.29179 | 239 ft | 48 kts | 50° |
| 2026-05-04 13:55 | 53.34270 | -2.28850 | 231 ft | 35 kts | 51° |
| 2026-05-04 13:55 | 53.34622 | -2.28459 | 236 ft | 26 kts | 21° |
| 2026-05-04 13:55 | 53.34733 | -2.28355 | 239 ft | 15 kts | 49° |
| 2026-05-04 13:56 | 53.34792 | -2.28229 | 239 ft | 8 kts | 52° |
| 2026-05-04 13:56 | 53.34824 | -2.28166 | 238 ft | 3 kts | 49° |
| 2026-05-04 13:56 | 53.34830 | -2.28154 | 238 ft | 1 kts | 49° |
| 2026-05-04 13:57 | 53.34871 | -2.28074 | 236 ft | 15 kts | 49° |
| 2026-05-04 13:57 | 53.34937 | -2.27933 | 238 ft | 15 kts | 51° |
| 2026-05-04 13:58 | 53.35147 | -2.27502 | 238 ft | 16 kts | 50° |
| 2026-05-04 13:58 | 53.35278 | -2.27239 | 244 ft | 14 kts | 41° |
| 2026-05-04 13:58 | 53.35353 | -2.27195 | 249 ft | 11 kts | 0° |
| 2026-05-04 13:59 | 53.35426 | -2.27260 | 251 ft | 13 kts | 320° |
| 2026-05-04 13:59 | 53.35496 | -2.27355 | 253 ft | 13 kts | 321° |
| 2026-05-04 13:59 | 53.35611 | -2.27508 | 249 ft | 11 kts | 322° |
| 2026-05-04 14:00 | 53.35667 | -2.27582 | 251 ft | 6 kts | 323° |
| 2026-05-04 14:00 | 53.35734 | -2.27641 | 253 ft | 5 kts | 336° |
| 2026-05-04 14:00 | 53.35766 | -2.27667 | 255 ft | 5 kts | 330° |
| 2026-05-04 14:01 | 53.35797 | -2.27710 | 255 ft | 6 kts | 318° |
| 2026-05-04 14:01 | 53.35827 | -2.27762 | 256 ft | 7 kts | 311° |
| 2026-05-04 14:01 | 53.35886 | -2.27836 | 259 ft | 4 kts | 341° |
| 2026-05-04 14:02 | 53.35947 | -2.27864 | 259 ft | 18 kts | 341° |
| 2026-05-04 14:02 | 53.36077 | -2.28024 | 259 ft | 25 kts | 318° |
| 2026-05-04 14:02 | 53.36206 | -2.28239 | 259 ft | 29 kts | 315° |
| 2026-05-04 14:02 | 53.36360 | -2.28475 | 259 ft | 28 kts | 333° |
| 2026-05-04 14:03 | 53.36435 | -2.28527 | 259 ft | 8 kts | 330° |
| 2026-05-04 14:03 | 53.36489 | -2.28602 | 259 ft | 11 kts | 315° |
| 2026-05-04 14:03 | 53.36550 | -2.28707 | 259 ft | 14 kts | 314° |
| 2026-05-04 14:03 | 53.36631 | -2.28765 | 259 ft | 13 kts | 15° |
| 2026-05-04 14:04 | 53.36781 | -2.28532 | 259 ft | 18 kts | 45° |
| 2026-05-04 14:04 | 53.36831 | -2.28458 | 259 ft | 1 kts | 22° |
| 2026-05-04 14:04 | 53.36867 | -2.28481 | 259 ft | 6 kts | 315° |
| 2026-05-04 14:05 | 53.36890 | -2.28518 | 259 ft | 0 kts | 315° |